Time;durP1;ratioP1;P1;durP2;ratioP2;P2;SDS_P1;SDS_P2;PMS_P1;PMS_P2;Temp;Humidity;BMP_temperature;BMP_pressure;BME280_temperature;BME280_humidity;BME280_pressure;Samples;Min_cycle;Max_cycle;Signal;HPM_P1;HPM_P2
2024/02/09 00:00:54;;;;;;;15.70;1.98;;;12.50;99.90;;;;;;5050730;28;20028;-78
2024/02/09 00:03:26;;;;;;;10.57;2.40;;;12.50;99.90;;;;;;5052634;28;20017;-79
2024/02/09 00:05:53;;;;;;;13.40;2.17;;;12.60;99.90;;;;;;5052135;28;20041;-79
2024/02/09 00:08:21;;;;;;;8.70;2.30;;;12.60;99.90;;;;;;5051478;28;20036;-79
2024/02/09 00:10:47;;;;;;;11.70;2.08;;;12.60;99.90;;;;;;5051860;28;20053;-79
2024/02/09 00:13:17;;;;;;;11.80;2.00;;;12.60;99.90;;;;;;5051258;28;20029;-79
2024/02/09 00:15:46;;;;;;;11.73;2.28;;;12.60;99.90;;;;;;5053542;28;20049;-77
2024/02/09 00:18:15;;;;;;;9.82;1.85;;;12.50;99.90;;;;;;5055994;28;20029;-79
2024/02/09 00:20:47;;;;;;;17.25;2.42;;;12.50;99.90;;;;;;5055487;28;20024;-78
2024/02/09 00:23:14;;;;;;;10.50;2.15;;;12.50;99.90;;;;;;5054574;28;20056;-79
2024/02/09 00:25:40;;;;;;;9.90;2.25;;;12.50;99.90;;;;;;5054353;28;20071;-77
2024/02/09 00:28:08;;;;;;;14.05;2.80;;;12.40;99.90;;;;;;5055318;28;20056;-79
2024/02/09 00:30:38;;;;;;;11.10;2.22;;;12.50;99.90;;;;;;5054855;28;20079;-79
2024/02/09 00:33:04;;;;;;;14.35;2.80;;;12.40;99.90;;;;;;5055195;28;20025;-79
2024/02/09 00:35:30;;;;;;;9.75;2.60;;;12.40;99.90;;;;;;5054578;28;20039;-79
2024/02/09 00:37:56;;;;;;;8.07;2.10;;;12.30;99.90;;;;;;5053935;28;20025;-79
2024/02/09 00:40:25;;;;;;;10.52;2.60;;;12.30;99.90;;;;;;5054841;28;20021;-79
2024/02/09 00:42:51;;;;;;;11.80;2.75;;;12.30;99.90;;;;;;5054914;28;20127;-79
2024/02/09 00:45:18;;;;;;;8.25;2.35;;;12.20;99.90;;;;;;5054716;28;20044;-80
2024/02/09 00:47:46;;;;;;;13.35;2.90;;;12.20;99.90;;;;;;5055206;28;20362;-77
2024/02/09 00:50:11;;;;;;;12.27;2.70;;;12.10;99.90;;;;;;5055658;28;20032;-80
2024/02/09 00:52:37;;;;;;;16.90;2.67;;;12.10;99.90;;;;;;5054501;28;20025;-78
2024/02/09 00:55:03;;;;;;;8.80;2.25;;;12.20;99.90;;;;;;5055124;28;20086;-79
2024/02/09 00:57:28;;;;;;;13.80;2.65;;;12.10;99.90;;;;;;5054405;28;20112;-79
2024/02/09 00:59:56;;;;;;;13.88;2.38;;;12.10;99.90;;;;;;5053491;28;20115;-79
2024/02/09 01:02:24;;;;;;;10.05;2.30;;;12.00;99.90;;;;;;5054003;28;20033;-79
2024/02/09 01:04:50;;;;;;;10.77;2.05;;;12.10;99.90;;;;;;5054424;28;20052;-79
2024/02/09 01:07:16;;;;;;;8.73;2.40;;;12.00;99.90;;;;;;5055169;28;20323;-79
2024/02/09 01:09:42;;;;;;;12.02;2.45;;;12.00;99.90;;;;;;5053728;28;20520;-78
2024/02/09 02:44:51;;;;;;;10.38;2.28;;;11.50;99.90;;;;;;5052626;28;20124;-78
2024/02/09 02:47:16;;;;;;;6.55;1.98;;;11.50;99.90;;;;;;5051822;28;20497;-79
2024/02/09 03:06:09;;;;;;;11.50;2.35;;;11.40;99.90;;;;;;5051720;28;20035;-78
2024/02/09 03:08:35;;;;;;;6.07;1.77;;;11.40;99.90;;;;;;5051620;28;20025;-78
2024/02/09 03:11:00;;;;;;;7.30;2.00;;;11.40;99.90;;;;;;5050760;28;20021;-78
2024/02/09 03:13:26;;;;;;;8.02;1.80;;;11.40;99.90;;;;;;5052769;28;20036;-79
2024/02/09 03:15:52;;;;;;;6.13;1.80;;;11.30;99.90;;;;;;5051287;28;20029;-79
2024/02/09 03:18:22;;;;;;;9.38;1.92;;;11.30;99.90;;;;;;5052608;28;20446;-78
2024/02/09 03:20:48;;;;;;;8.93;2.25;;;11.30;99.90;;;;;;5051817;28;20029;-78
2024/02/09 03:23:17;;;;;;;10.75;2.28;;;11.30;99.90;;;;;;5050971;28;20025;-78
2024/02/09 03:25:42;;;;;;;8.60;2.55;;;11.30;99.90;;;;;;5052235;28;20036;-78
2024/02/09 03:28:08;;;;;;;7.13;1.70;;;11.30;99.90;;;;;;5051382;28;20029;-78
2024/02/09 03:30:34;;;;;;;8.20;2.47;;;11.30;99.90;;;;;;5052839;28;20458;-79
2024/02/09 03:33:00;;;;;;;8.15;1.88;;;11.30;99.90;;;;;;5052391;28;20029;-79
2024/02/09 03:35:25;;;;;;;9.40;1.80;;;11.30;99.90;;;;;;5052010;28;20119;-79
2024/02/09 03:37:51;;;;;;;6.97;2.33;;;11.40;99.90;;;;;;5052929;28;20029;-79
2024/02/09 03:40:16;;;;;;;5.95;2.03;;;11.30;99.90;;;;;;5051494;28;20031;-79
2024/02/09 03:42:42;;;;;;;7.85;2.58;;;11.30;99.90;;;;;;5051207;28;20076;-79
2024/02/09 03:45:09;;;;;;;7.07;1.55;;;11.30;99.90;;;;;;5050901;28;20064;-78
2024/02/09 03:47:35;;;;;;;5.35;2.00;;;11.30;99.90;;;;;;5052892;28;20468;-79
2024/02/09 03:50:04;;;;;;;8.23;1.95;;;11.30;99.90;;;;;;5053837;28;20104;-78
2024/02/09 03:52:29;;;;;;;6.75;2.22;;;11.30;99.90;;;;;;5055570;28;20040;-79
2024/02/09 03:54:55;;;;;;;10.00;2.10;;;11.30;99.90;;;;;;5056329;28;20028;-78
2024/02/09 03:57:23;;;;;;;9.20;2.13;;;11.20;99.90;;;;;;5055117;28;20021;-79
2024/02/09 03:59:50;;;;;;;8.90;2.42;;;11.30;99.90;;;;;;5055788;28;20029;-78
2024/02/09 04:02:16;;;;;;;6.63;1.92;;;11.30;99.90;;;;;;5055654;28;20020;-79
2024/02/09 04:04:42;;;;;;;4.75;1.83;;;11.30;99.90;;;;;;5055354;28;20036;-78
2024/02/09 04:07:08;;;;;;;6.57;1.80;;;11.30;99.90;;;;;;5054692;28;20025;-78
2024/02/09 04:09:35;;;;;;;9.40;2.30;;;11.20;99.90;;;;;;5056475;28;20473;-78
2024/02/09 04:12:01;;;;;;;5.18;1.75;;;11.20;99.90;;;;;;5054675;28;20029;-78
2024/02/09 04:14:30;;;;;;;5.47;1.63;;;11.20;99.90;;;;;;5056616;28;20029;-79
2024/02/09 04:16:58;;;;;;;11.32;2.30;;;11.20;99.90;;;;;;5056118;28;20555;-78
2024/02/09 04:19:26;;;;;;;6.60;2.17;;;11.20;99.90;;;;;;5055566;28;20029;-79
2024/02/09 04:21:52;;;;;;;7.00;2.00;;;11.10;99.90;;;;;;5056467;28;20112;-79
2024/02/09 04:24:24;;;;;;;5.40;1.88;;;11.20;99.90;;;;;;5054495;28;20021;-79
2024/02/09 04:26:51;;;;;;;7.18;2.10;;;11.10;99.90;;;;;;5055443;28;20104;-79
2024/02/09 04:29:21;;;;;;;10.07;1.88;;;11.10;99.90;;;;;;5054831;28;20044;-79
2024/02/09 04:31:47;;;;;;;6.53;2.00;;;11.10;99.90;;;;;;5056301;28;20036;-79
2024/02/09 04:34:13;;;;;;;9.85;2.42;;;11.10;99.90;;;;;;5055671;28;20078;-79
2024/02/09 04:36:41;;;;;;;8.60;2.05;;;11.10;99.90;;;;;;5056164;28;20040;-79
2024/02/09 04:39:10;;;;;;;6.22;2.35;;;11.10;99.90;;;;;;5054326;28;20036;-79
2024/02/09 04:41:53;;;;;;;6.40;2.00;;;11.10;99.90;;;;;;5055549;28;20025;-79
2024/02/09 04:44:21;;;;;;;8.48;2.78;;;11.10;99.90;;;;;;5054350;28;20072;-79
2024/02/09 04:46:48;;;;;;;11.05;2.45;;;11.10;99.90;;;;;;5054924;28;20025;-79
2024/02/09 04:49:14;;;;;;;6.57;2.10;;;11.10;99.90;;;;;;5054180;28;20024;-79
2024/02/09 04:51:44;;;;;;;8.48;2.03;;;11.10;99.90;;;;;;5055739;28;20170;-78
2024/02/09 04:54:10;;;;;;;8.90;2.20;;;11.10;99.90;;;;;;5054244;28;20497;-80
2024/02/09 04:56:37;;;;;;;7.57;2.00;;;11.10;99.90;;;;;;5054480;28;20071;-79
2024/02/09 04:59:10;;;;;;;8.73;2.30;;;11.10;99.90;;;;;;5055164;28;20052;-78
2024/02/09 05:01:38;;;;;;;6.82;2.28;;;11.20;99.90;;;;;;5053346;28;20025;-79
2024/02/09 05:04:08;;;;;;;5.72;1.85;;;11.10;99.90;;;;;;5054858;28;20028;-79
2024/02/09 05:06:34;;;;;;;7.47;2.08;;;11.20;99.90;;;;;;5054353;28;20120;-79
2024/02/09 05:09:03;;;;;;;9.43;2.70;;;11.20;99.90;;;;;;5054265;28;20059;-79
2024/02/09 05:11:29;;;;;;;8.05;2.20;;;11.10;99.90;;;;;;5055551;28;20111;-79
2024/02/09 05:13:56;;;;;;;7.95;3.00;;;11.10;99.90;;;;;;5054592;28;20056;-79
2024/02/09 05:16:22;;;;;;;6.93;3.13;;;11.10;99.90;;;;;;5054579;28;20071;-79
2024/02/09 05:18:48;;;;;;;7.32;1.90;;;11.10;99.90;;;;;;5054376;28;20383;-79
2024/02/09 05:21:14;;;;;;;7.90;2.28;;;11.00;99.90;;;;;;5054670;28;20025;-78
2024/02/09 05:23:40;;;;;;;10.73;2.15;;;11.10;99.90;;;;;;5054886;28;20029;-79
2024/02/09 05:26:09;;;;;;;5.43;2.40;;;11.00;99.90;;;;;;5054404;28;20033;-78
2024/02/09 05:28:39;;;;;;;5.53;1.90;;;11.10;99.90;;;;;;5053907;28;20025;-79
2024/02/09 05:31:15;;;;;;;5.30;2.08;;;11.10;99.90;;;;;;5054627;28;20029;-78
2024/02/09 05:33:41;;;;;;;6.95;2.08;;;11.10;99.90;;;;;;5055180;28;20040;-78
2024/02/09 05:36:07;;;;;;;8.18;2.42;;;11.00;99.90;;;;;;5054060;28;20470;-78
2024/02/09 05:38:35;;;;;;;8.50;2.67;;;11.00;99.90;;;;;;5053743;28;20025;-79
2024/02/09 05:41:02;;;;;;;8.95;2.25;;;11.00;99.90;;;;;;5054570;28;20024;-78
2024/02/09 05:43:29;;;;;;;9.20;2.40;;;11.00;99.90;;;;;;5054431;28;20470;-78
2024/02/09 05:45:54;;;;;;;6.32;2.30;;;11.00;99.90;;;;;;5054261;28;20459;-79
2024/02/09 05:48:21;;;;;;;8.70;2.60;;;11.00;99.90;;;;;;5053935;28;20095;-78
2024/02/09 05:50:47;;;;;;;7.95;2.40;;;11.10;99.90;;;;;;5054409;28;20441;-78
2024/02/09 05:53:12;;;;;;;6.75;2.15;;;11.10;99.90;;;;;;5052905;28;20048;-78
2024/02/09 05:55:40;;;;;;;10.40;2.65;;;11.10;99.90;;;;;;5052895;28;20035;-79
2024/02/09 05:58:06;;;;;;;12.13;2.30;;;11.10;99.90;;;;;;5052465;28;20025;-79
2024/02/09 06:00:32;;;;;;;13.35;2.75;;;11.10;99.90;;;;;;5054364;28;20092;-79
2024/02/09 06:02:58;;;;;;;8.32;2.25;;;11.20;99.90;;;;;;5053118;28;20063;-79
2024/02/09 06:05:23;;;;;;;7.93;2.22;;;11.20;99.90;;;;;;5052766;28;20064;-79
2024/02/09 06:07:49;;;;;;;7.10;2.08;;;11.20;99.90;;;;;;5053325;28;20541;-79
2024/02/09 06:10:15;;;;;;;9.95;2.28;;;11.20;99.90;;;;;;5052635;28;20390;-79
2024/02/09 06:12:44;;;;;;;7.38;2.53;;;11.20;99.90;;;;;;5053961;28;20155;-79
2024/02/09 06:15:13;;;;;;;9.23;2.33;;;11.20;99.90;;;;;;5052479;28;20497;-79
2024/02/09 06:17:38;;;;;;;9.02;2.05;;;11.20;99.90;;;;;;5054311;28;20025;-79
2024/02/09 06:20:05;;;;;;;8.10;2.00;;;11.20;99.90;;;;;;5053034;28;20028;-77
2024/02/09 06:22:30;;;;;;;4.57;1.80;;;11.20;99.90;;;;;;5053802;28;20036;-79
2024/02/09 06:24:57;;;;;;;8.40;1.90;;;11.20;99.90;;;;;;5052210;28;20040;-79
2024/02/09 06:27:24;;;;;;;6.63;2.00;;;11.20;99.90;;;;;;5052617;28;20045;-79
2024/02/09 06:29:52;;;;;;;8.88;2.13;;;11.20;99.90;;;;;;5052726;28;20032;-79
2024/02/09 06:32:19;;;;;;;6.55;2.45;;;11.20;99.90;;;;;;5051783;28;20052;-78
2024/02/09 06:34:45;;;;;;;5.72;2.05;;;11.20;99.90;;;;;;5053395;28;20029;-79
2024/02/09 06:37:10;;;;;;;4.20;1.63;;;11.20;99.90;;;;;;5052903;28;20163;-79
2024/02/09 06:39:36;;;;;;;6.40;1.98;;;11.20;99.90;;;;;;5053680;28;20021;-79
2024/02/09 06:42:02;;;;;;;2.83;1.50;;;11.20;99.90;;;;;;5053455;28;20052;-79
2024/02/09 06:44:28;;;;;;;4.05;1.60;;;11.20;99.90;;;;;;5053798;28;20033;-80
2024/02/09 06:46:54;;;;;;;6.32;1.80;;;11.20;99.90;;;;;;5052394;28;20052;-79
2024/02/09 06:49:20;;;;;;;3.97;2.03;;;11.20;99.90;;;;;;5052448;28;20025;-80
2024/02/09 06:51:46;;;;;;;8.95;2.42;;;11.20;99.90;;;;;;5054577;28;20159;-80
2024/02/09 06:54:11;;;;;;;6.80;1.90;;;11.20;99.90;;;;;;5053356;28;20477;-80
2024/02/09 06:56:37;;;;;;;8.02;1.73;;;11.20;99.90;;;;;;5053575;28;20135;-80
2024/02/09 06:59:04;;;;;;;4.35;1.90;;;11.20;99.90;;;;;;5055054;28;20059;-81
2024/02/09 07:01:31;;;;;;;9.10;1.85;;;11.30;99.90;;;;;;5052781;28;20464;-81
2024/02/09 07:03:57;;;;;;;6.18;2.05;;;11.20;99.90;;;;;;5053563;28;20029;-81
2024/02/09 07:06:23;;;;;;;6.25;1.85;;;11.30;99.90;;;;;;5055682;28;20301;-79
2024/02/09 07:08:53;;;;;;;5.35;1.75;;;11.20;99.90;;;;;;5059655;28;20032;-81
2024/02/09 07:11:19;;;;;;;5.32;1.65;;;11.30;99.90;;;;;;5060759;28;20037;-81
2024/02/09 07:13:46;;;;;;;4.57;1.77;;;11.30;99.90;;;;;;5059531;28;20067;-81
2024/02/09 07:16:11;;;;;;;8.45;1.73;;;11.30;99.90;;;;;;5052040;28;20033;-81
2024/02/09 07:18:39;;;;;;;5.22;1.63;;;11.40;99.90;;;;;;5052621;28;20036;-81
2024/02/09 07:21:06;;;;;;;7.30;1.73;;;11.40;99.90;;;;;;5051826;28;20024;-80
2024/02/09 07:23:32;;;;;;;3.47;1.70;;;11.40;99.90;;;;;;5052497;28;20112;-81
2024/02/09 07:25:57;;;;;;;6.60;1.70;;;11.40;99.90;;;;;;5055886;28;20124;-81
2024/02/09 07:28:23;;;;;;;4.47;1.30;;;11.40;99.90;;;;;;5056063;28;20029;-81
2024/02/09 07:30:49;;;;;;;6.53;1.63;;;11.40;99.90;;;;;;5056771;28;20028;-81
2024/02/09 07:33:15;;;;;;;3.95;1.25;;;11.40;99.90;;;;;;5057225;28;20025;-80
2024/02/09 07:35:43;;;;;;;6.40;1.60;;;11.40;99.90;;;;;;5056640;28;20056;-81
2024/02/09 07:38:09;;;;;;;9.13;2.88;;;11.40;99.90;;;;;;5056869;28;20029;-81
2024/02/09 07:40:34;;;;;;;7.45;1.58;;;11.50;99.90;;;;;;5057405;28;20382;-81
2024/02/09 07:43:00;;;;;;;4.82;1.58;;;11.50;99.90;;;;;;5056762;28;20056;-80
2024/02/09 07:45:26;;;;;;;5.97;1.48;;;11.50;99.90;;;;;;5055601;28;20091;-80
2024/02/09 07:47:53;;;;;;;5.75;1.90;;;11.50;99.90;;;;;;5056035;28;20028;-80
2024/02/09 07:50:19;;;;;;;9.52;1.50;;;11.60;99.90;;;;;;5056318;28;20454;-80
2024/02/09 07:52:44;;;;;;;8.05;1.98;;;11.60;99.90;;;;;;5056936;28;20029;-80
2024/02/09 07:55:10;;;;;;;3.78;1.40;;;11.60;99.90;;;;;;5055179;28;20079;-80
2024/02/09 07:57:35;;;;;;;8.35;1.98;;;11.70;99.90;;;;;;5056943;28;20100;-80
2024/02/09 08:00:08;;;;;;;4.50;1.20;;;11.70;99.90;;;;;;5056524;28;20029;-80
2024/02/09 08:02:33;;;;;;;5.43;1.60;;;11.70;99.90;;;;;;5056035;28;20024;-80
2024/02/09 08:05:07;;;;;;;4.97;1.48;;;11.70;99.90;;;;;;5055483;28;20033;-80
2024/02/09 08:07:37;;;;;;;7.20;1.48;;;11.70;99.90;;;;;;5055901;28;20159;-80
2024/02/09 08:10:03;;;;;;;7.05;1.60;;;11.70;99.90;;;;;;5056839;28;20084;-80
2024/02/09 08:12:29;;;;;;;6.25;1.45;;;11.80;99.90;;;;;;5054589;28;20098;-80
2024/02/09 08:14:56;;;;;;;6.55;1.45;;;11.80;99.90;;;;;;5056720;28;20036;-80
2024/02/09 08:17:21;;;;;;;5.85;2.17;;;11.80;99.90;;;;;;5055321;28;20075;-80
2024/02/09 08:19:47;;;;;;;5.97;1.48;;;11.80;99.90;;;;;;5056692;28;20453;-81
2024/02/09 08:22:12;;;;;;;7.50;1.52;;;11.90;99.90;;;;;;5056029;28;20029;-80
2024/02/09 08:24:38;;;;;;;3.97;2.03;;;11.90;99.90;;;;;;5071982;28;20033;-81
2024/02/09 08:27:04;;;;;;;4.45;1.15;;;12.00;99.90;;;;;;5072254;28;20028;-81
2024/02/09 08:29:30;;;;;;;7.97;1.58;;;12.00;99.90;;;;;;5071725;28;20116;-81
2024/02/09 08:31:55;;;;;;;6.65;1.50;;;12.00;99.90;;;;;;5072135;28;20049;-80
2024/02/09 08:34:21;;;;;;;5.57;2.03;;;12.10;99.90;;;;;;5071545;28;20083;-80
2024/02/09 08:36:46;;;;;;;3.78;1.30;;;12.00;99.90;;;;;;5056236;28;20416;-81
2024/02/09 08:39:12;;;;;;;2.92;1.55;;;12.10;99.90;;;;;;5054636;28;20116;-80
2024/02/09 08:41:37;;;;;;;4.20;1.50;;;12.10;99.90;;;;;;5055951;28;20106;-80
2024/02/09 08:44:04;;;;;;;3.25;1.20;;;12.10;99.90;;;;;;5072201;28;20029;-81
2024/02/09 08:46:30;;;;;;;4.82;1.80;;;12.10;99.90;;;;;;5055284;28;20036;-80
2024/02/09 08:48:56;;;;;;;6.45;1.52;;;12.20;99.90;;;;;;5071723;28;20025;-80
2024/02/09 08:51:21;;;;;;;3.70;1.30;;;12.20;99.90;;;;;;5054456;28;20025;-80
2024/02/09 08:53:47;;;;;;;3.72;1.17;;;12.20;99.90;;;;;;5054563;28;20028;-80
2024/02/09 08:56:13;;;;;;;4.03;1.30;;;12.30;99.90;;;;;;5055344;28;20025;-80
2024/02/09 08:58:40;;;;;;;5.00;1.25;;;12.30;99.90;;;;;;5071143;28;20033;-80
2024/02/09 09:01:06;;;;;;;4.20;1.40;;;12.40;99.90;;;;;;5055679;28;20116;-81
2024/02/09 09:03:33;;;;;;;4.95;1.50;;;12.50;99.90;;;;;;5055167;28;20056;-80
2024/02/09 09:05:59;;;;;;;6.35;1.23;;;12.50;99.90;;;;;;5073465;28;20131;-80
2024/02/09 09:08:25;;;;;;;5.45;1.40;;;12.50;99.90;;;;;;5055061;28;20440;-80
2024/02/09 09:10:51;;;;;;;7.63;1.27;;;12.60;99.90;;;;;;5069909;28;20021;-80
2024/02/09 09:13:17;;;;;;;5.65;1.45;;;12.50;99.90;;;;;;5053961;28;20025;-79
2024/02/09 09:15:52;;;;;;;7.95;1.23;;;12.60;99.90;;;;;;5055360;28;20378;-80
2024/02/09 09:18:17;;;;;;;3.78;1.50;;;12.60;99.90;;;;;;5061873;28;20089;-81
2024/02/09 09:20:44;;;;;;;4.30;1.80;;;12.70;99.90;;;;;;5053185;28;20465;-80
2024/02/09 09:23:10;;;;;;;5.15;1.55;;;12.80;99.90;;;;;;5053181;28;20036;-80
2024/02/09 09:25:35;;;;;;;12.85;1.60;;;12.80;99.90;;;;;;5052148;28;20033;-80
2024/02/09 09:28:01;;;;;;;3.33;1.40;;;12.90;99.90;;;;;;5073053;28;20028;-80
2024/02/09 09:30:26;;;;;;;4.43;1.25;;;12.90;99.90;;;;;;5073944;28;20023;-80
2024/02/09 09:32:53;;;;;;;5.57;1.35;;;12.90;99.90;;;;;;5072113;28;20451;-80
2024/02/09 09:35:18;;;;;;;4.80;1.50;;;13.00;99.90;;;;;;5073174;28;20029;-80
2024/02/09 09:37:44;;;;;;;3.60;1.30;;;13.00;99.90;;;;;;5073066;28;20024;-81
2024/02/09 09:40:11;;;;;;;6.90;1.48;;;13.10;99.90;;;;;;5073845;28;20063;-80
2024/02/09 09:42:39;;;;;;;4.57;1.70;;;13.10;99.90;;;;;;5071832;28;20059;-80
2024/02/09 09:45:08;;;;;;;8.18;1.60;;;13.10;99.90;;;;;;5073716;28;20036;-80
2024/02/09 09:47:37;;;;;;;4.65;1.38;;;13.10;99.90;;;;;;5071611;28;20020;-80
2024/02/09 09:50:08;;;;;;;3.63;1.65;;;13.20;99.90;;;;;;5072175;28;20028;-79
2024/02/09 09:52:36;;;;;;;4.82;1.45;;;13.20;99.90;;;;;;5071569;28;20060;-81
2024/02/09 09:55:02;;;;;;;5.90;1.52;;;13.30;99.90;;;;;;5073613;28;20024;-79
2024/02/09 09:57:29;;;;;;;6.35;1.27;;;13.40;99.90;;;;;;5071938;28;20057;-81
2024/02/09 09:59:55;;;;;;;2.88;1.40;;;13.50;99.90;;;;;;5072295;28;20654;-80
2024/02/09 10:02:21;;;;;;;4.28;1.38;;;13.50;99.90;;;;;;5072428;28;20035;-80
2024/02/09 10:04:46;;;;;;;5.50;1.55;;;13.50;99.90;;;;;;5073752;28;20468;-80
2024/02/09 10:07:19;;;;;;;4.45;1.80;;;13.50;99.90;;;;;;5072651;28;20029;-80
2024/02/09 10:09:46;;;;;;;4.32;1.38;;;13.50;99.90;;;;;;5072634;28;20032;-80
2024/02/09 10:12:15;;;;;;;5.50;1.00;;;13.50;99.90;;;;;;5073456;28;20107;-80
2024/02/09 10:14:41;;;;;;;3.80;1.17;;;13.60;99.90;;;;;;5072836;28;20494;-81
2024/02/09 10:17:11;;;;;;;4.57;1.50;;;13.60;99.90;;;;;;5073261;28;20031;-80
2024/02/09 10:19:37;;;;;;;4.40;1.50;;;13.60;99.90;;;;;;5071554;28;20219;-80
2024/02/09 10:22:03;;;;;;;1.70;1.10;;;13.60;99.90;;;;;;5072904;28;20028;-80
2024/02/09 10:24:28;;;;;;;5.05;1.50;;;13.70;99.90;;;;;;5065681;28;20086;-81
2024/02/09 10:26:55;;;;;;;5.95;1.50;;;13.70;99.90;;;;;;5052820;28;20049;-82
2024/02/09 10:29:21;;;;;;;5.57;0.98;;;13.70;99.90;;;;;;5053427;28;20021;-81
2024/02/09 10:31:46;;;;;;;3.63;1.08;;;13.70;99.90;;;;;;5052969;28;20371;-82
2024/02/09 10:34:12;;;;;;;2.80;1.00;;;13.70;99.90;;;;;;5052748;28;20424;-82
2024/02/09 10:36:40;;;;;;;5.63;1.10;;;13.80;99.90;;;;;;5051952;28;20036;-82
2024/02/09 10:39:07;;;;;;;3.53;1.10;;;13.80;99.90;;;;;;5052114;28;20053;-81
2024/02/09 10:41:36;;;;;;;3.13;1.00;;;13.90;99.90;;;;;;5050818;28;20021;-81
2024/02/09 10:44:04;;;;;;;4.82;1.25;;;13.90;99.90;;;;;;5051980;28;20029;-81
2024/02/09 10:46:32;;;;;;;4.40;1.02;;;13.90;99.90;;;;;;5051392;28;20072;-81
2024/02/09 10:48:59;;;;;;;2.20;0.90;;;13.90;99.90;;;;;;5053485;28;20044;-81
2024/02/09 10:51:32;;;;;;;6.28;1.20;;;13.90;99.90;;;;;;5051683;28;20029;-81
2024/02/09 10:54:23;;;;;;;2.85;1.00;;;14.00;99.90;;;;;;5054984;28;20450;-82
2024/02/09 10:56:50;;;;;;;3.58;1.05;;;14.00;99.90;;;;;;5071794;28;20059;-82
2024/02/09 10:59:17;;;;;;;5.75;1.20;;;14.00;99.90;;;;;;5071499;28;20104;-80
2024/02/09 11:01:44;;;;;;;4.75;1.13;;;14.10;99.90;;;;;;5071290;28;20020;-80
2024/02/09 11:04:09;;;;;;;3.38;1.10;;;14.10;99.90;;;;;;5071651;28;20038;-80
2024/02/09 11:06:36;;;;;;;6.38;1.08;;;14.10;99.90;;;;;;5071141;28;20040;-80
2024/02/09 11:09:02;;;;;;;7.45;1.35;;;14.10;99.90;;;;;;5070359;28;20480;-80
2024/02/09 11:11:32;;;;;;;4.43;1.20;;;14.10;99.90;;;;;;5051685;28;20033;-80
2024/02/09 11:14:09;;;;;;;5.15;1.58;;;14.10;99.90;;;;;;5052731;28;20063;-80
2024/02/09 11:16:42;;;;;;;3.03;1.33;;;14.20;99.90;;;;;;5053068;28;20025;-81
2024/02/09 11:19:13;;;;;;;4.50;1.23;;;14.20;99.90;;;;;;5052081;28;20025;-80
2024/02/09 11:21:43;;;;;;;5.03;1.20;;;14.20;99.90;;;;;;5052908;28;20055;-81
2024/02/09 11:24:09;;;;;;;2.78;1.20;;;14.20;99.90;;;;;;5052711;28;20029;-81
2024/02/09 11:26:36;;;;;;;5.63;1.25;;;14.20;99.90;;;;;;5052018;28;20037;-80
2024/02/09 11:29:02;;;;;;;2.60;0.98;;;14.20;99.90;;;;;;5052666;28;20025;-80
2024/02/09 11:31:28;;;;;;;3.40;1.20;;;14.20;99.90;;;;;;5052844;28;20025;-80
2024/02/09 11:33:54;;;;;;;4.47;1.42;;;14.20;99.90;;;;;;5052839;28;20128;-81
2024/02/09 11:36:22;;;;;;;3.88;1.00;;;14.20;99.90;;;;;;5052009;28;20109;-80
2024/02/09 11:38:50;;;;;;;4.82;1.10;;;14.20;99.90;;;;;;5052647;28;20112;-81
2024/02/09 11:41:16;;;;;;;6.50;1.92;;;14.10;99.90;;;;;;5052437;28;20458;-80
2024/02/09 11:43:43;;;;;;;3.60;0.88;;;14.10;99.90;;;;;;5053097;28;20120;-81
2024/02/09 11:46:09;;;;;;;5.28;1.33;;;14.00;99.90;;;;;;5052244;28;20090;-81
2024/02/09 11:48:38;;;;;;;4.32;1.30;;;14.00;99.90;;;;;;5051574;28;20481;-81
2024/02/09 11:51:04;;;;;;;3.13;1.30;;;13.90;99.90;;;;;;5049280;28;20055;-82
2024/02/09 11:53:29;;;;;;;2.17;1.02;;;13.90;99.90;;;;;;5052663;28;20470;-81
2024/02/09 11:55:56;;;;;;;4.75;1.10;;;13.90;99.90;;;;;;5052082;28;20029;-81
2024/02/09 11:58:21;;;;;;;5.45;0.95;;;13.90;99.90;;;;;;5051569;28;20056;-80
2024/02/09 12:00:50;;;;;;;3.35;0.93;;;13.90;99.90;;;;;;5053253;28;20041;-81
2024/02/09 12:03:16;;;;;;;3.20;1.00;;;13.90;99.90;;;;;;5052797;28;20013;-81
2024/02/09 12:05:43;;;;;;;6.47;1.42;;;14.00;99.90;;;;;;5051147;28;20043;-82
2024/02/09 12:08:08;;;;;;;5.57;1.30;;;14.00;99.90;;;;;;5052175;28;20024;-81
2024/02/09 12:10:36;;;;;;;4.35;1.00;;;14.10;99.90;;;;;;5053707;28;20027;-81
2024/02/09 12:13:01;;;;;;;4.70;1.00;;;14.10;99.90;;;;;;5055515;28;20374;-81
2024/02/09 12:15:29;;;;;;;4.82;1.15;;;14.20;99.90;;;;;;5055275;28;20037;-81
2024/02/09 12:17:59;;;;;;;2.92;1.00;;;14.20;99.90;;;;;;5055673;28;20454;-81
2024/02/09 12:20:24;;;;;;;5.97;0.90;;;14.20;99.90;;;;;;5052487;28;20060;-81
2024/02/09 12:22:50;;;;;;;2.38;1.38;;;14.30;99.90;;;;;;5054582;28;20406;-81
2024/02/09 12:25:16;;;;;;;6.70;1.58;;;14.30;99.90;;;;;;5057133;28;20033;-80
2024/02/09 12:27:42;;;;;;;2.40;0.95;;;14.40;99.90;;;;;;5054151;28;20028;-80
2024/02/09 12:30:09;;;;;;;3.40;1.00;;;14.50;99.90;;;;;;5059186;28;20032;-80
2024/02/09 12:32:36;;;;;;;3.55;1.13;;;14.60;99.90;;;;;;5058369;28;20032;-80
2024/02/09 12:35:02;;;;;;;5.00;1.33;;;14.70;99.90;;;;;;5056451;28;20453;-80
2024/02/09 12:37:28;;;;;;;5.03;0.93;;;14.70;99.90;;;;;;5055148;28;20024;-80
2024/02/09 12:39:53;;;;;;;5.03;1.05;;;14.70;99.90;;;;;;5054599;28;20025;-80
2024/02/09 12:42:28;;;;;;;3.15;1.27;;;14.70;99.90;;;;;;5054237;28;20485;-80
2024/02/09 12:44:53;;;;;;;3.97;1.10;;;14.70;99.90;;;;;;5054691;28;20055;-80
2024/02/09 12:47:19;;;;;;;6.78;1.45;;;14.70;99.90;;;;;;5055553;28;20056;-80
2024/02/09 12:49:49;;;;;;;3.63;0.90;;;14.70;99.90;;;;;;5054010;28;20067;-80
2024/02/09 12:52:15;;;;;;;6.82;1.20;;;14.70;99.90;;;;;;5054531;28;20442;-81
2024/02/09 12:54:42;;;;;;;6.85;1.13;;;14.80;99.90;;;;;;5053868;28;20107;-80
2024/02/09 12:57:08;;;;;;;4.60;1.30;;;14.80;99.90;;;;;;5054174;28;20039;-81
2024/02/09 12:59:37;;;;;;;2.70;0.90;;;14.90;99.90;;;;;;5054791;28;20021;-80
2024/02/09 13:02:10;;;;;;;3.05;1.10;;;14.90;99.90;;;;;;5054462;28;20530;-80
2024/02/09 13:04:37;;;;;;;2.67;1.10;;;14.90;99.90;;;;;;5059536;28;20029;-80
2024/02/09 13:07:06;;;;;;;4.05;1.42;;;14.90;99.90;;;;;;5060404;28;20028;-80
2024/02/09 13:09:35;;;;;;;6.10;1.10;;;15.00;99.90;;;;;;5058410;28;20029;-80
2024/02/09 13:12:01;;;;;;;5.13;1.17;;;15.00;99.90;;;;;;5062121;28;20032;-80
2024/02/09 13:14:26;;;;;;;6.22;1.95;;;14.90;99.90;;;;;;5060827;28;20033;-80
2024/02/09 13:16:52;;;;;;;4.97;1.10;;;14.90;99.90;;;;;;5052981;28;20112;-80
2024/02/09 13:19:18;;;;;;;4.53;1.17;;;15.00;99.90;;;;;;5054381;28;20029;-80
2024/02/09 13:21:55;;;;;;;8.10;1.17;;;15.00;99.90;;;;;;5068119;28;20027;-80
2024/02/09 13:24:21;;;;;;;4.20;1.15;;;15.10;99.90;;;;;;5083503;28;20115;-80
2024/02/09 13:26:50;;;;;;;4.50;0.82;;;15.10;99.90;;;;;;5071891;28;20101;-80
2024/02/09 13:29:24;;;;;;;4.38;1.67;;;15.00;99.90;;;;;;5073429;28;20542;-81
2024/02/09 13:31:50;;;;;;;3.22;0.80;;;15.00;99.90;;;;;;5073223;28;20025;-80
2024/02/09 13:34:16;;;;;;;4.90;1.02;;;14.90;99.90;;;;;;5073247;28;20025;-81
2024/02/09 13:36:42;;;;;;;2.58;0.98;;;14.90;99.90;;;;;;5073189;28;20036;-81
2024/02/09 13:39:07;;;;;;;4.20;1.10;;;14.90;99.90;;;;;;5073094;28;20028;-81
2024/02/09 13:41:33;;;;;;;5.10;0.93;;;15.00;99.90;;;;;;5072172;28;20083;-80
2024/02/09 13:43:59;;;;;;;3.88;1.15;;;15.00;99.90;;;;;;5074014;28;20578;-80
2024/02/09 13:46:27;;;;;;;2.97;1.42;;;15.00;99.90;;;;;;5072348;28;20036;-80
2024/02/09 13:48:54;;;;;;;3.13;0.70;;;15.10;99.90;;;;;;5072895;28;20392;-81
2024/02/09 13:51:20;;;;;;;5.45;1.15;;;15.00;99.90;;;;;;5062588;28;20047;-80
2024/02/09 13:53:47;;;;;;;6.07;0.85;;;15.00;99.90;;;;;;5053240;28;20355;-81
2024/02/09 13:56:14;;;;;;;1.50;0.85;;;15.00;99.90;;;;;;5052689;28;20386;-80
2024/02/09 13:58:44;;;;;;;5.10;1.25;;;14.90;99.90;;;;;;5051220;28;20098;-80
2024/02/09 14:01:13;;;;;;;1.77;0.90;;;14.90;99.90;;;;;;5052123;28;20115;-81
2024/02/09 14:03:39;;;;;;;2.50;1.17;;;14.80;99.90;;;;;;5052375;28;20108;-80
2024/02/09 14:06:04;;;;;;;9.82;1.42;;;14.80;99.90;;;;;;5053937;28;20131;-81
2024/02/09 14:08:32;;;;;;;1.88;0.90;;;14.70;99.90;;;;;;5053545;28;20082;-80
2024/02/09 14:10:58;;;;;;;3.75;0.90;;;14.70;99.90;;;;;;5052260;28;20025;-81
2024/02/09 14:13:23;;;;;;;3.85;1.20;;;14.60;99.90;;;;;;5051671;28;20029;-81
2024/02/09 14:15:50;;;;;;;4.68;1.48;;;14.60;99.90;;;;;;5068992;28;20469;-80
2024/02/09 14:18:17;;;;;;;6.40;1.63;;;14.50;99.90;;;;;;5073167;28;20028;-80
2024/02/09 14:20:46;;;;;;;1.73;0.90;;;14.50;99.90;;;;;;5073168;28;20020;-80
2024/02/09 14:23:12;;;;;;;3.70;1.35;;;14.50;99.90;;;;;;5072173;28;20025;-80
2024/02/09 14:25:38;;;;;;;2.20;1.15;;;14.40;99.90;;;;;;5071209;28;20492;-80
2024/02/09 14:28:08;;;;;;;3.92;1.20;;;14.30;99.90;;;;;;5072898;28;20032;-80
2024/02/09 14:30:33;;;;;;;4.22;1.30;;;14.30;99.90;;;;;;5071387;28;20036;-80
2024/02/09 14:33:00;;;;;;;4.15;1.08;;;14.20;99.90;;;;;;5071415;28;20028;-80